createdAt,value
2017-11-14T00:00:25.989Z,0
2017-11-14T00:01:26.303Z,0
2017-11-14T00:02:25.937Z,0
2017-11-14T00:03:25.936Z,0
2017-11-14T00:04:25.896Z,0
2017-11-14T00:05:25.537Z,0
2017-11-14T00:06:25.859Z,0
2017-11-14T00:07:25.853Z,0
2017-11-14T00:08:26.173Z,0
2017-11-14T00:09:25.470Z,0
2017-11-14T00:10:25.500Z,0
2017-11-14T00:11:25.434Z,0
2017-11-14T00:12:25.773Z,0
2017-11-14T00:13:25.754Z,0
2017-11-14T00:14:25.723Z,0
2017-11-14T00:15:26.389Z,0
2017-11-14T00:16:26.100Z,0
2017-11-14T00:17:26.012Z,0
2017-11-14T00:18:25.649Z,0
2017-11-14T00:19:25.294Z,0
2017-11-14T00:20:26.026Z,0
2017-11-14T00:21:25.250Z,0
2017-11-14T00:22:25.583Z,0
2017-11-14T00:23:25.917Z,0
2017-11-14T00:24:25.191Z,0
2017-11-14T00:25:25.176Z,0
2017-11-14T00:26:25.883Z,0
2017-11-14T00:27:25.484Z,0
2017-11-14T00:28:25.461Z,0
2017-11-14T00:29:25.445Z,0
2017-11-14T00:30:26.242Z,0
2017-11-14T00:31:25.410Z,0
2017-11-14T00:32:25.748Z,0
2017-11-14T00:33:25.720Z,0
2017-11-14T00:34:25.354Z,0
2017-11-14T00:35:24.990Z,0
2017-11-14T00:36:25.656Z,0
2017-11-14T00:37:25.292Z,0
2017-11-14T00:38:25.634Z,0
2017-11-14T00:39:25.274Z,0
2017-11-14T00:40:25.266Z,0
2017-11-14T00:41:25.565Z,0
2017-11-14T00:42:25.212Z,0
2017-11-14T00:43:25.537Z,0
2017-11-14T00:44:25.169Z,0
2017-11-14T00:45:25.159Z,0
2017-11-14T00:46:25.495Z,0
2017-11-14T00:47:24.765Z,0
2017-11-14T00:48:24.756Z,0
2017-11-14T00:49:24.732Z,0
2017-11-14T00:50:25.056Z,0
2017-11-14T00:51:25.393Z,0
2017-11-14T00:52:24.679Z,0
2017-11-14T00:53:24.676Z,0
2017-11-14T00:54:24.642Z,0
2017-11-14T00:55:24.990Z,0
2017-11-14T00:56:24.947Z,0
2017-11-14T00:57:24.948Z,0
2017-11-14T00:58:24.911Z,0
2017-11-14T00:59:25.232Z,0
2017-11-14T01:00:24.877Z,0
2017-11-14T01:01:24.524Z,0
2017-11-14T01:02:24.494Z,0
2017-11-14T01:03:25.185Z,0
2017-11-14T01:04:24.816Z,0
2017-11-14T01:05:25.131Z,0
2017-11-14T01:06:25.131Z,0
2017-11-14T01:07:24.402Z,0
2017-11-14T01:08:25.071Z,0
2017-11-14T01:09:24.707Z,0
2017-11-14T01:10:24.713Z,0
2017-11-14T01:11:24.671Z,0
2017-11-14T01:12:25.377Z,0
2017-11-14T01:13:24.639Z,0
2017-11-14T01:14:24.970Z,0
2017-11-14T01:15:24.631Z,0
2017-11-14T01:16:24.581Z,0
2017-11-14T01:17:24.238Z,0
2017-11-14T01:18:24.561Z,0
2017-11-14T01:19:24.527Z,0
2017-11-14T01:20:26.755Z,0
2017-11-14T01:21:24.507Z,0
2017-11-14T01:22:24.480Z,0
2017-11-14T01:23:24.796Z,0
2017-11-14T01:24:24.453Z,0
2017-11-14T01:25:24.415Z,0
2017-11-14T01:26:24.410Z,0
2017-11-14T01:27:24.054Z,0
2017-11-14T01:28:24.704Z,0
2017-11-14T01:29:24.345Z,0
2017-11-14T01:30:24.668Z,0
2017-11-14T01:31:24.313Z,0
2017-11-14T01:32:24.630Z,0
2017-11-14T01:33:24.268Z,0
2017-11-14T01:34:23.906Z,0
2017-11-14T01:35:23.899Z,0
2017-11-14T01:36:24.586Z,0
2017-11-14T01:37:23.855Z,0
2017-11-14T01:38:24.178Z,0
2017-11-14T01:39:24.160Z,0
2017-11-14T01:40:23.843Z,0
2017-11-14T01:41:24.985Z,0
2017-11-14T01:42:24.444Z,0
2017-11-14T01:43:24.091Z,0
2017-11-14T01:44:24.407Z,0
2017-11-14T01:45:24.048Z,0
2017-11-14T01:46:24.027Z,0
2017-11-14T01:47:24.044Z,0
2017-11-14T01:48:23.648Z,0
2017-11-14T01:49:24.012Z,0
2017-11-14T01:50:23.610Z,0
2017-11-14T01:51:24.277Z,0
2017-11-14T01:52:23.572Z,0
2017-11-14T01:53:24.245Z,0
2017-11-14T01:54:23.888Z,0
2017-11-14T01:55:23.882Z,0
2017-11-14T01:56:23.842Z,0
2017-11-14T01:57:23.827Z,0
2017-11-14T01:58:24.508Z,0
2017-11-14T01:59:23.804Z,0
2017-11-14T02:00:23.777Z,0
2017-11-14T02:01:23.765Z,0
2017-11-14T02:02:23.736Z,0
2017-11-14T02:03:23.726Z,0
2017-11-14T02:04:23.705Z,0
2017-11-14T02:05:23.689Z,0
2017-11-14T02:06:23.693Z,0
2017-11-14T02:07:23.983Z,0
2017-11-14T02:08:23.623Z,0
2017-11-14T02:09:23.257Z,0
2017-11-14T02:10:24.275Z,0
2017-11-14T02:11:23.561Z,0
2017-11-14T02:12:23.543Z,0
2017-11-14T02:13:23.870Z,0
2017-11-14T02:14:23.178Z,0
2017-11-14T02:15:23.147Z,0
2017-11-14T02:16:23.827Z,0
2017-11-14T02:17:23.130Z,0
2017-11-14T02:18:24.134Z,0
2017-11-14T02:19:23.764Z,0
2017-11-14T02:20:23.059Z,0
2017-11-14T02:21:23.382Z,0
2017-11-14T02:22:23.371Z,0
2017-11-14T02:23:23.340Z,0
2017-11-14T02:24:23.329Z,0
2017-11-14T02:25:23.677Z,0
2017-11-14T02:26:23.320Z,0
2017-11-14T02:27:23.269Z,0
2017-11-14T02:28:23.267Z,0
2017-11-14T02:29:23.579Z,0
2017-11-14T02:30:23.217Z,0
2017-11-14T02:31:23.193Z,0
2017-11-14T02:32:23.867Z,0
2017-11-14T02:33:23.168Z,0
2017-11-14T02:34:22.801Z,0
2017-11-14T02:35:23.813Z,0
2017-11-14T02:36:22.782Z,0
2017-11-14T02:37:23.095Z,0
2017-11-14T02:38:30.126Z,0
2017-11-14T02:39:23.395Z,0
2017-11-14T02:40:22.685Z,0
2017-11-14T02:41:23.372Z,0
2017-11-14T02:42:23.014Z,0
2017-11-14T02:43:22.641Z,0
2017-11-14T02:44:22.954Z,0
2017-11-14T02:45:23.303Z,0
2017-11-14T02:46:22.596Z,0
2017-11-14T02:47:22.911Z,0
2017-11-14T02:48:22.540Z,0
2017-11-14T02:49:23.214Z,0
2017-11-14T02:50:23.245Z,0
2017-11-14T02:51:22.488Z,0
2017-11-14T02:52:22.852Z,0
2017-11-14T02:53:22.474Z,0
2017-11-14T02:54:22.772Z,0
2017-11-14T02:55:22.758Z,0
2017-11-14T02:56:22.767Z,0
2017-11-14T02:57:22.751Z,0
2017-11-14T02:58:22.730Z,0
2017-11-14T02:59:23.379Z,0
2017-11-14T03:00:22.326Z,0
2017-11-14T03:01:22.657Z,0
2017-11-14T03:02:22.999Z,0
2017-11-14T03:03:22.639Z,0
2017-11-14T03:04:22.610Z,0
2017-11-14T03:05:22.586Z,0
2017-11-14T03:06:22.919Z,0
2017-11-14T03:07:22.899Z,0
2017-11-14T03:08:22.527Z,0
2017-11-14T03:09:22.184Z,0
2017-11-14T03:10:22.865Z,0
2017-11-14T03:11:22.482Z,0
2017-11-14T03:12:22.500Z,0
2017-11-14T03:13:22.440Z,0
2017-11-14T03:14:22.427Z,0
2017-11-14T03:15:22.421Z,0
2017-11-14T03:16:22.391Z,0
2017-11-14T03:17:22.028Z,0
2017-11-14T03:18:23.046Z,0
2017-11-14T03:19:22.334Z,0
2017-11-14T03:20:21.969Z,0
2017-11-14T03:21:21.959Z,0
2017-11-14T03:22:22.631Z,0
2017-11-14T03:23:21.920Z,0
2017-11-14T03:24:22.601Z,0
2017-11-14T03:25:21.889Z,0
2017-11-14T03:26:22.554Z,0
2017-11-14T03:27:22.202Z,0
2017-11-14T03:28:22.179Z,0
2017-11-14T03:29:22.541Z,0
2017-11-14T03:30:22.160Z,0
2017-11-14T03:31:21.805Z,0
2017-11-14T03:32:22.520Z,0
2017-11-14T03:33:22.468Z,0
2017-11-14T03:34:22.420Z,0
2017-11-14T03:35:22.401Z,0
2017-11-14T03:36:21.696Z,0
2017-11-14T03:37:22.025Z,0
2017-11-14T03:38:22.365Z,0
2017-11-14T03:39:21.647Z,0
2017-11-14T03:40:21.627Z,0
2017-11-14T03:41:21.995Z,0
2017-11-14T03:42:21.954Z,0
2017-11-14T03:43:21.920Z,0
2017-11-14T03:44:22.259Z,0
2017-11-14T03:45:21.901Z,0
2017-11-14T03:46:22.211Z,0
2017-11-14T03:47:22.197Z,0
2017-11-14T03:48:21.833Z,0
2017-11-14T03:49:21.480Z,0
2017-11-14T03:50:21.463Z,0
2017-11-14T03:51:22.126Z,0
2017-11-14T03:52:21.778Z,0
2017-11-14T03:53:21.753Z,0
2017-11-14T03:54:21.387Z,0
2017-11-14T03:55:21.492Z,0
2017-11-14T03:56:21.695Z,0
2017-11-14T03:57:21.681Z,0
2017-11-14T03:58:22.007Z,0
2017-11-14T03:59:21.642Z,0
2017-11-14T04:00:21.973Z,0
2017-11-14T04:01:21.953Z,0
2017-11-14T04:02:21.597Z,0
2017-11-14T04:03:21.235Z,0
2017-11-14T04:04:21.900Z,0
2017-11-14T04:05:21.544Z,0
2017-11-14T04:06:21.534Z,0
2017-11-14T04:07:21.852Z,0
2017-11-14T04:08:21.867Z,0
2017-11-14T04:09:21.142Z,0
2017-11-14T04:10:21.475Z,0
2017-11-14T04:11:21.803Z,0
2017-11-14T04:12:21.779Z,0
2017-11-14T04:13:21.409Z,0
2017-11-14T04:14:21.396Z,0
2017-11-14T04:15:21.043Z,0
2017-11-14T04:16:21.014Z,0
2017-11-14T04:17:21.339Z,0
2017-11-14T04:18:21.672Z,0
2017-11-14T04:19:21.315Z,0
2017-11-14T04:20:21.665Z,0
2017-11-14T04:21:21.630Z,0
2017-11-14T04:22:20.924Z,0
2017-11-14T04:23:20.894Z,0
2017-11-14T04:24:21.222Z,0
2017-11-14T04:25:21.546Z,0
2017-11-14T04:26:20.857Z,0
2017-11-14T04:27:20.844Z,0
2017-11-14T04:28:21.518Z,0
2017-11-14T04:29:21.474Z,0
2017-11-14T04:30:21.166Z,0
2017-11-14T04:31:21.453Z,0
2017-11-14T04:32:20.784Z,0
2017-11-14T04:33:21.071Z,0
2017-11-14T04:34:21.067Z,0
2017-11-14T04:35:20.695Z,0
2017-11-14T04:36:21.017Z,0
2017-11-14T04:37:21.014Z,0
2017-11-14T04:38:20.987Z,0
2017-11-14T04:39:21.334Z,0
2017-11-14T04:40:21.297Z,0
2017-11-14T04:41:21.278Z,0
2017-11-14T04:42:20.955Z,0
2017-11-14T04:43:21.263Z,0
2017-11-14T04:44:20.880Z,0
2017-11-14T04:45:20.862Z,0
2017-11-14T04:46:20.513Z,0
2017-11-14T04:47:20.831Z,0
2017-11-14T04:48:21.185Z,0
2017-11-14T04:49:20.815Z,0
2017-11-14T04:50:20.786Z,0
2017-11-14T04:51:20.762Z,0
2017-11-14T04:52:21.089Z,0
2017-11-14T04:53:20.729Z,0
2017-11-14T04:54:20.401Z,0
2017-11-14T04:55:21.388Z,0
2017-11-14T04:56:20.688Z,0
2017-11-14T04:57:20.675Z,0
2017-11-14T04:58:20.657Z,0
2017-11-14T04:59:20.628Z,0
2017-11-14T05:00:20.609Z,0
2017-11-14T05:01:20.252Z,0
2017-11-14T05:02:20.925Z,0
2017-11-14T05:03:20.560Z,0
2017-11-14T05:04:20.546Z,0
2017-11-14T05:05:20.187Z,0
2017-11-14T05:06:20.533Z,0
2017-11-14T05:07:20.845Z,0
2017-11-14T05:08:20.826Z,0
2017-11-14T05:09:20.814Z,0
2017-11-14T05:10:20.453Z,0
2017-11-14T05:11:20.767Z,0
2017-11-14T05:12:20.760Z,0
2017-11-14T05:13:21.130Z,0
2017-11-14T05:14:21.065Z,0
2017-11-14T05:15:20.016Z,0
2017-11-14T05:16:20.344Z,0
2017-11-14T05:17:20.685Z,0
2017-11-14T05:18:20.311Z,0
2017-11-14T05:19:20.292Z,0
2017-11-14T05:20:20.295Z,0
2017-11-14T05:21:19.914Z,0
2017-11-14T05:22:19.897Z,0
2017-11-14T05:23:20.237Z,0
2017-11-14T05:24:20.218Z,0
2017-11-14T05:25:20.195Z,0
2017-11-14T05:26:20.882Z,0
2017-11-14T05:27:20.516Z,0
2017-11-14T05:28:20.502Z,0
2017-11-14T05:29:20.467Z,0
2017-11-14T05:30:20.101Z,0
2017-11-14T05:31:19.742Z,0
2017-11-14T05:32:20.072Z,0
2017-11-14T05:33:20.425Z,0
2017-11-14T05:34:20.038Z,0
2017-11-14T05:35:20.018Z,0
2017-11-14T05:36:20.002Z,0
2017-11-14T05:37:20.325Z,0
2017-11-14T05:38:20.312Z,0
2017-11-14T05:39:19.960Z,0
2017-11-14T05:40:19.934Z,0
2017-11-14T05:41:20.261Z,0
2017-11-14T05:42:19.913Z,0
2017-11-14T05:43:19.884Z,0
2017-11-14T05:44:19.524Z,0
2017-11-14T05:45:19.852Z,0
2017-11-14T05:46:19.489Z,0
2017-11-14T05:47:19.826Z,0
2017-11-14T05:48:20.156Z,0
2017-11-14T05:49:19.784Z,0
2017-11-14T05:50:20.122Z,0
2017-11-14T05:51:20.091Z,0
2017-11-14T05:52:19.736Z,0
2017-11-14T05:53:19.729Z,0
2017-11-14T05:54:19.701Z,0
2017-11-14T05:55:19.360Z,4
2017-11-14T05:56:19.321Z,4
2017-11-14T05:57:20.011Z,0
2017-11-14T05:58:19.975Z,4
2017-11-14T05:59:19.613Z,0
2017-11-14T06:00:19.959Z,4
2017-11-14T06:01:20.288Z,4
2017-11-14T06:02:19.222Z,8
2017-11-14T06:03:19.903Z,8
2017-11-14T06:04:19.186Z,12
2017-11-14T06:05:19.876Z,12
2017-11-14T06:06:19.493Z,16
2017-11-14T06:07:20.167Z,16
2017-11-14T06:08:19.115Z,20
2017-11-14T06:09:19.104Z,24
2017-11-14T06:10:19.769Z,32
2017-11-14T06:11:19.764Z,36
2017-11-14T06:12:19.755Z,40
2017-11-14T06:13:19.725Z,48
2017-11-14T06:14:19.017Z,56
2017-11-14T06:15:19.347Z,60
2017-11-14T06:16:19.363Z,68
2017-11-14T06:17:19.306Z,76
2017-11-14T06:18:20.005Z,88
2017-11-14T06:19:19.280Z,100
2017-11-14T06:20:18.940Z,112
2017-11-14T06:21:19.246Z,124
2017-11-14T06:22:19.564Z,136
2017-11-14T06:23:19.235Z,148
2017-11-14T06:24:19.189Z,164
2017-11-14T06:25:18.832Z,184
2017-11-14T06:26:18.811Z,208
2017-11-14T06:27:19.143Z,232
2017-11-14T06:28:19.121Z,252
2017-11-14T06:29:19.104Z,280
2017-11-14T06:30:19.098Z,300
2017-11-14T06:31:19.411Z,308
2017-11-14T06:32:19.061Z,312
2017-11-14T06:33:18.697Z,312
2017-11-14T06:34:19.020Z,316
2017-11-14T06:35:19.012Z,340
2017-11-14T06:36:18.993Z,360
2017-11-14T06:37:19.547Z,392
2017-11-14T06:38:19.299Z,424
2017-11-14T06:39:18.609Z,444
2017-11-14T06:40:19.260Z,452
2017-11-14T06:41:18.931Z,468
2017-11-14T06:42:19.570Z,464
2017-11-14T06:43:18.525Z,492
2017-11-14T06:44:18.848Z,544
2017-11-14T06:45:18.506Z,580
2017-11-14T06:46:19.172Z,628
2017-11-14T06:47:19.485Z,664
2017-11-14T06:48:19.126Z,636
2017-11-14T06:49:18.438Z,628
2017-11-14T06:50:18.758Z,680
2017-11-14T06:51:18.386Z,724
2017-11-14T06:52:18.718Z,744
2017-11-14T06:53:19.384Z,764
2017-11-14T06:54:18.336Z,776
2017-11-14T06:55:18.665Z,784
2017-11-14T06:56:18.648Z,832
2017-11-14T06:57:18.287Z,836
2017-11-14T06:58:18.967Z,852
2017-11-14T06:59:18.593Z,908
2017-11-14T07:00:18.602Z,928
2017-11-14T07:01:18.565Z,984
2017-11-14T07:02:18.539Z,1044
2017-11-14T07:03:18.524Z,1076
2017-11-14T07:04:18.189Z,1072
2017-11-14T07:05:18.830Z,1088
2017-11-14T07:06:18.840Z,1116
2017-11-14T07:07:18.471Z,1156
2017-11-14T07:08:19.129Z,1188
2017-11-14T07:09:18.796Z,1212
2017-11-14T07:10:18.404Z,1240
2017-11-14T07:11:18.050Z,1256
2017-11-14T07:12:18.736Z,1264
2017-11-14T07:13:18.384Z,1284
2017-11-14T07:14:18.357Z,1308
2017-11-14T07:15:18.318Z,1328
2017-11-14T07:16:18.303Z,1344
2017-11-14T07:17:18.291Z,1364
2017-11-14T07:18:18.621Z,1380
2017-11-14T07:19:18.254Z,1400
2017-11-14T07:20:18.253Z,1420
2017-11-14T07:21:18.561Z,1440
2017-11-14T07:22:18.206Z,1452
2017-11-14T07:23:17.843Z,1464
2017-11-14T07:24:18.880Z,1492
2017-11-14T07:25:18.506Z,1528
2017-11-14T07:26:18.142Z,1568
2017-11-14T07:27:18.162Z,1604
2017-11-14T07:28:18.094Z,1644
2017-11-14T07:29:18.079Z,1656
2017-11-14T07:30:18.410Z,1644
2017-11-14T07:31:18.406Z,1636
2017-11-14T07:32:18.024Z,1636
2017-11-14T07:33:18.728Z,1648
2017-11-14T07:34:17.992Z,1672
2017-11-14T07:35:18.334Z,1704
2017-11-14T07:36:17.960Z,1744
2017-11-14T07:37:18.307Z,1776
2017-11-14T07:38:17.599Z,1804
2017-11-14T07:39:18.259Z,1808
2017-11-14T07:40:18.239Z,1808
2017-11-14T07:41:18.221Z,1832
2017-11-14T07:42:17.852Z,1904
2017-11-14T07:43:17.838Z,1996
2017-11-14T07:44:17.838Z,2092
2017-11-14T07:45:17.817Z,2176
2017-11-14T07:46:17.439Z,2304
2017-11-14T07:47:17.766Z,2536
2017-11-14T07:48:18.117Z,3008
2017-11-14T07:49:18.089Z,3564
2017-11-14T07:50:17.373Z,4012
2017-11-14T07:51:17.721Z,4212
2017-11-14T07:52:17.335Z,4292
2017-11-14T07:53:17.659Z,4352
2017-11-14T07:54:17.302Z,4176
2017-11-14T07:55:17.629Z,3912
2017-11-14T07:56:17.619Z,3976
2017-11-14T07:57:17.968Z,4148
2017-11-14T07:58:18.264Z,4328
2017-11-14T07:59:17.577Z,3992
2017-11-14T08:00:17.542Z,3516
2017-11-14T08:01:17.886Z,3292
2017-11-14T08:02:17.510Z,3116
2017-11-14T08:03:17.493Z,2936
2017-11-14T08:04:17.822Z,2872
2017-11-14T08:05:17.797Z,2828
2017-11-14T08:06:17.459Z,2820
2017-11-14T08:07:17.429Z,2900
2017-11-14T08:08:17.064Z,3028
2017-11-14T08:09:17.731Z,3064
2017-11-14T08:10:17.032Z,2860
2017-11-14T08:11:17.378Z,2704
2017-11-14T08:12:17.361Z,2596
2017-11-14T08:13:17.695Z,2580
2017-11-14T08:14:17.330Z,2664
2017-11-14T08:15:17.663Z,2816
2017-11-14T08:16:17.629Z,2828
2017-11-14T08:17:17.333Z,2740
2017-11-14T08:18:17.249Z,2604
2017-11-14T08:19:17.573Z,2644
2017-11-14T08:20:17.219Z,2704
2017-11-14T08:21:16.848Z,2728
2017-11-14T08:22:17.213Z,2796
2017-11-14T08:23:17.158Z,2916
2017-11-14T08:24:17.139Z,3268
2017-11-14T08:25:17.472Z,3688
2017-11-14T08:26:17.109Z,3924
2017-11-14T08:27:16.811Z,3916
2017-11-14T08:28:17.431Z,3948
2017-11-14T08:29:16.713Z,3912
2017-11-14T08:30:17.044Z,3924
2017-11-14T08:31:17.365Z,4120
2017-11-14T08:32:17.347Z,4096
2017-11-14T08:33:16.653Z,4148
2017-11-14T08:34:16.633Z,4260
2017-11-14T08:35:16.972Z,4248
2017-11-14T08:36:16.946Z,4240
2017-11-14T08:37:16.929Z,4276
2017-11-14T08:38:16.917Z,4172
2017-11-14T08:39:16.898Z,3936
2017-11-14T08:40:16.893Z,3740
2017-11-14T08:41:17.230Z,3712
2017-11-14T08:42:16.847Z,3940
2017-11-14T08:43:16.831Z,4280
2017-11-14T08:44:17.155Z,4364
2017-11-14T08:45:17.148Z,4368
2017-11-14T08:46:16.782Z,4444
2017-11-14T08:47:16.785Z,4504
2017-11-14T08:48:17.458Z,4712
2017-11-14T08:49:16.387Z,4828
2017-11-14T08:50:16.722Z,4888
2017-11-14T08:51:16.725Z,5012
2017-11-14T08:52:17.030Z,4932
2017-11-14T08:53:16.684Z,4928
2017-11-14T08:54:16.305Z,4996
2017-11-14T08:55:16.987Z,4920
2017-11-14T08:56:17.347Z,4636
2017-11-14T08:57:16.603Z,4160
2017-11-14T08:58:16.597Z,4164
2017-11-14T08:59:16.598Z,4132
2017-11-14T09:00:17.245Z,4132
2017-11-14T09:01:16.876Z,4192
2017-11-14T09:02:16.865Z,4212
2017-11-14T09:03:16.509Z,4444
2017-11-14T09:04:16.836Z,4652
2017-11-14T09:05:16.151Z,4768
2017-11-14T09:06:16.480Z,4700
2017-11-14T09:07:16.791Z,4976
2017-11-14T09:08:16.782Z,5224
2017-11-14T09:09:16.760Z,5152
2017-11-14T09:10:16.071Z,5032
2017-11-14T09:11:17.081Z,4836
2017-11-14T09:12:17.059Z,4788
2017-11-14T09:13:16.021Z,4796
2017-11-14T09:14:16.342Z,4828
2017-11-14T09:15:16.659Z,5148
2017-11-14T09:16:16.296Z,5180
2017-11-14T09:17:16.626Z,4820
2017-11-14T09:18:15.920Z,4540
2017-11-14T09:19:16.251Z,4608
2017-11-14T09:20:16.233Z,4748
2017-11-14T09:21:16.917Z,4864
2017-11-14T09:22:15.890Z,4524
2017-11-14T09:23:15.845Z,4236
2017-11-14T09:24:16.169Z,4200
2017-11-14T09:25:15.830Z,4104
2017-11-14T09:26:16.151Z,3976
2017-11-14T09:27:16.468Z,4368
2017-11-14T09:28:16.108Z,4848
2017-11-14T09:29:15.749Z,5332
2017-11-14T09:30:16.078Z,5448
2017-11-14T09:31:16.750Z,5460
2017-11-14T09:32:16.051Z,5188
2017-11-14T09:33:16.373Z,5260
2017-11-14T09:34:15.672Z,5308
2017-11-14T09:35:16.363Z,5632
2017-11-14T09:36:15.666Z,5740
2017-11-14T09:37:15.980Z,5556
2017-11-14T09:38:16.316Z,5784
2017-11-14T09:39:16.282Z,5820
2017-11-14T09:40:15.922Z,5928
2017-11-14T09:41:16.267Z,6044
2017-11-14T09:42:15.546Z,5988
2017-11-14T09:43:15.876Z,6072
2017-11-14T09:44:16.208Z,6284
2017-11-14T09:45:16.189Z,6392
2017-11-14T09:46:15.831Z,6476
2017-11-14T09:47:15.819Z,6624
2017-11-14T09:48:16.143Z,6752
2017-11-14T09:49:15.782Z,6748
2017-11-14T09:50:15.773Z,6824
2017-11-14T09:51:16.441Z,6996
2017-11-14T09:52:16.112Z,7016
2017-11-14T09:53:16.093Z,6876
2017-11-14T09:54:15.709Z,6708
2017-11-14T09:55:16.399Z,6608
2017-11-14T09:56:16.031Z,6576
2017-11-14T09:57:15.318Z,6504
2017-11-14T09:58:15.664Z,6452
2017-11-14T09:59:15.632Z,6524
2017-11-14T10:00:15.284Z,6724
2017-11-14T10:01:15.951Z,6872
2017-11-14T10:02:15.932Z,6700
2017-11-14T10:03:15.596Z,6664
2017-11-14T10:04:15.222Z,6600
2017-11-14T10:05:15.916Z,6404
2017-11-14T10:06:15.537Z,5996
2017-11-14T10:07:15.169Z,5448
2017-11-14T10:08:16.193Z,5176
2017-11-14T10:09:15.488Z,5096
2017-11-14T10:10:15.485Z,5128
2017-11-14T10:11:15.802Z,5184
2017-11-14T10:12:15.802Z,5332
2017-11-14T10:13:16.145Z,5612
2017-11-14T10:14:15.413Z,5836
2017-11-14T10:15:15.417Z,6000
2017-11-14T10:16:15.719Z,6052
2017-11-14T10:17:15.770Z,6248
2017-11-14T10:18:15.006Z,6520
2017-11-14T10:19:15.673Z,6732
2017-11-14T10:20:14.974Z,6868
2017-11-14T10:21:16.005Z,6920
2017-11-14T10:22:15.997Z,6912
2017-11-14T10:23:14.926Z,6868
2017-11-14T10:24:14.911Z,6852
2017-11-14T10:25:15.275Z,6812
2017-11-14T10:26:15.226Z,6828
2017-11-14T10:27:15.556Z,6712
2017-11-14T10:28:15.929Z,6668
2017-11-14T10:29:15.551Z,6768
2017-11-14T10:30:15.510Z,6828
2017-11-14T10:31:14.808Z,6740
2017-11-14T10:32:15.150Z,6676
2017-11-14T10:33:15.118Z,6636
2017-11-14T10:34:15.798Z,6568
2017-11-14T10:35:15.152Z,6444
2017-11-14T10:36:15.433Z,6380
2017-11-14T10:37:15.419Z,6364
2017-11-14T10:38:15.410Z,6420
2017-11-14T10:39:15.373Z,6560
2017-11-14T10:40:15.370Z,6696
2017-11-14T10:41:15.000Z,6776
2017-11-14T10:42:14.991Z,6976
2017-11-14T10:43:15.323Z,7160
2017-11-14T10:44:15.300Z,7212
2017-11-14T10:45:14.598Z,7084
2017-11-14T10:46:14.603Z,6996
2017-11-14T10:47:15.252Z,6908
2017-11-14T10:48:14.908Z,7016
2017-11-14T10:49:14.887Z,7264
2017-11-14T10:50:15.211Z,7212
2017-11-14T10:51:14.849Z,7316
2017-11-14T10:52:14.523Z,7316
2017-11-14T10:53:14.485Z,7220
2017-11-14T10:54:14.469Z,7008
2017-11-14T10:55:15.139Z,6844
2017-11-14T10:56:14.781Z,6556
2017-11-14T10:57:15.117Z,6060
2017-11-14T10:58:14.764Z,5992
2017-11-14T10:59:15.124Z,6228
2017-11-14T11:00:15.072Z,6264
2017-11-14T11:01:14.754Z,5932
2017-11-14T11:02:14.700Z,5228
2017-11-14T11:03:15.037Z,4596
2017-11-14T11:04:14.666Z,3908
2017-11-14T11:05:14.669Z,3600
2017-11-14T11:06:14.982Z,3740
2017-11-14T11:07:14.625Z,4000
2017-11-14T11:08:14.262Z,4248
2017-11-14T11:09:15.279Z,4592
2017-11-14T11:10:14.239Z,4920
2017-11-14T11:11:15.269Z,5208
2017-11-14T11:12:14.897Z,5352
2017-11-14T11:13:15.254Z,5604
2017-11-14T11:14:14.860Z,5488
2017-11-14T11:15:14.164Z,5308
2017-11-14T11:16:14.838Z,5408
2017-11-14T11:17:14.479Z,5696
2017-11-14T11:18:14.475Z,5848
2017-11-14T11:19:14.444Z,5668
2017-11-14T11:20:14.434Z,5804
2017-11-14T11:21:14.075Z,5888
2017-11-14T11:22:14.405Z,5912
2017-11-14T11:23:15.081Z,5900
2017-11-14T11:24:14.713Z,6096
2017-11-14T11:25:14.012Z,6240
2017-11-14T11:26:14.001Z,6144
2017-11-14T11:27:13.988Z,6096
2017-11-14T11:28:14.317Z,5752
2017-11-14T11:29:14.306Z,5792
2017-11-14T11:30:14.650Z,6216
2017-11-14T11:31:14.622Z,6404
2017-11-14T11:32:14.266Z,6392
2017-11-14T11:33:14.592Z,6476
2017-11-14T11:34:14.230Z,6428
2017-11-14T11:35:14.567Z,6048
2017-11-14T11:36:14.228Z,5792
2017-11-14T11:37:14.186Z,5692
2017-11-14T11:38:14.521Z,5564
2017-11-14T11:39:14.157Z,5568
2017-11-14T11:40:14.490Z,5304
2017-11-14T11:41:14.137Z,5508
2017-11-14T11:42:14.109Z,4772
2017-11-14T11:43:14.461Z,4400
2017-11-14T11:44:14.082Z,4112
2017-11-14T11:45:14.753Z,4024
2017-11-14T11:46:13.708Z,4256
2017-11-14T11:47:14.402Z,4356
2017-11-14T11:48:13.680Z,4492
2017-11-14T11:49:14.366Z,3692
2017-11-14T11:50:13.657Z,3044
2017-11-14T11:51:14.328Z,2796
2017-11-14T11:52:14.337Z,2896
2017-11-14T11:53:13.610Z,3124
2017-11-14T11:54:13.941Z,3160
2017-11-14T11:55:13.579Z,3700
2017-11-14T11:56:14.266Z,4076
2017-11-14T11:57:14.238Z,3680
2017-11-14T11:58:14.231Z,3920
2017-11-14T11:59:14.551Z,4024
2017-11-14T12:00:14.560Z,2608
2017-11-14T12:01:14.191Z,2392
2017-11-14T12:02:13.478Z,2744
2017-11-14T12:03:14.161Z,3092
2017-11-14T12:04:14.155Z,3088
2017-11-14T12:05:13.789Z,2932
2017-11-14T12:06:13.761Z,2644
2017-11-14T12:07:13.766Z,2904
2017-11-14T12:08:13.750Z,2608
2017-11-14T12:09:14.082Z,2332
2017-11-14T12:10:14.397Z,2348
2017-11-14T12:11:14.378Z,2540
2017-11-14T12:12:13.675Z,2720
2017-11-14T12:13:13.704Z,2560
2017-11-14T12:14:13.652Z,2584
2017-11-14T12:15:13.289Z,2920
2017-11-14T12:16:13.275Z,3068
2017-11-14T12:17:13.963Z,2672
2017-11-14T12:18:13.584Z,2380
2017-11-14T12:19:13.570Z,2588
2017-11-14T12:20:13.570Z,2304
2017-11-14T12:21:13.895Z,2364
2017-11-14T12:22:13.869Z,2776
2017-11-14T12:23:13.516Z,3576
2017-11-14T12:24:13.501Z,4088
2017-11-14T12:25:14.180Z,4100
2017-11-14T12:26:13.521Z,4028
2017-11-14T12:27:14.146Z,4028
2017-11-14T12:28:13.874Z,3996
2017-11-14T12:29:13.076Z,3392
2017-11-14T12:30:13.414Z,3268
2017-11-14T12:31:13.053Z,3276
2017-11-14T12:32:13.734Z,3444
2017-11-14T12:33:13.393Z,3708
2017-11-14T12:34:13.349Z,3976
2017-11-14T12:35:13.330Z,3620
2017-11-14T12:36:14.018Z,3040
2017-11-14T12:37:13.315Z,3196
2017-11-14T12:38:13.293Z,3520
2017-11-14T12:39:13.277Z,4360
2017-11-14T12:40:12.915Z,4808
2017-11-14T12:41:13.603Z,5608
2017-11-14T12:42:13.233Z,6248
2017-11-14T12:43:13.216Z,7108
2017-11-14T12:44:13.544Z,6824
2017-11-14T12:45:13.197Z,5480
2017-11-14T12:46:13.184Z,4636
2017-11-14T12:47:12.812Z,3488
2017-11-14T12:48:13.483Z,2988
2017-11-14T12:49:13.151Z,2812
2017-11-14T12:50:13.825Z,2856
2017-11-14T12:51:13.112Z,3028
2017-11-14T12:52:13.076Z,3344
2017-11-14T12:53:13.066Z,3980
2017-11-14T12:54:13.061Z,4520
2017-11-14T12:55:13.395Z,3896
2017-11-14T12:56:12.679Z,4196
2017-11-14T12:57:12.954Z,3512
2017-11-14T12:58:12.967Z,3004
2017-11-14T12:59:12.648Z,3132
2017-11-14T13:00:12.907Z,3080
2017-11-14T13:01:12.906Z,2984
2017-11-14T13:02:12.603Z,3672
2017-11-14T13:03:13.142Z,4164
2017-11-14T13:04:12.879Z,3944
2017-11-14T13:05:12.552Z,4348
2017-11-14T13:06:13.095Z,3548
2017-11-14T13:07:13.077Z,4056
2017-11-14T13:08:12.779Z,4600
2017-11-14T13:09:13.352Z,4924
2017-11-14T13:10:12.770Z,4824
2017-11-14T13:11:12.737Z,4944
2017-11-14T13:12:12.445Z,6108
2017-11-14T13:13:12.985Z,4028
2017-11-14T13:14:12.706Z,3188
2017-11-14T13:15:12.955Z,3360
2017-11-14T13:16:12.676Z,3088
2017-11-14T13:17:12.669Z,3772
2017-11-14T13:18:13.199Z,4384
2017-11-14T13:19:12.359Z,4216
2017-11-14T13:20:12.900Z,5140
2017-11-14T13:21:12.319Z,6792
2017-11-14T13:22:12.308Z,6260
2017-11-14T13:23:12.846Z,4504
2017-11-14T13:24:12.596Z,3700
2017-11-14T13:25:12.558Z,3780
2017-11-14T13:26:12.545Z,4536
2017-11-14T13:27:12.232Z,4208
2017-11-14T13:28:12.773Z,3692
2017-11-14T13:29:12.205Z,3200
2017-11-14T13:30:12.742Z,2840
2017-11-14T13:31:12.446Z,3212
2017-11-14T13:32:12.449Z,3480
2017-11-14T13:33:12.693Z,3168
2017-11-14T13:34:12.127Z,2272
2017-11-14T13:35:12.408Z,2256
2017-11-14T13:36:12.380Z,2128
2017-11-14T13:37:12.101Z,2084
2017-11-14T13:38:12.352Z,2084
2017-11-14T13:39:12.057Z,2356
2017-11-14T13:40:12.892Z,2992
2017-11-14T13:41:12.634Z,4340
2017-11-14T13:42:12.022Z,5216
2017-11-14T13:43:12.554Z,4388
2017-11-14T13:44:12.267Z,3904
2017-11-14T13:45:12.249Z,4052
2017-11-14T13:46:12.505Z,4052
2017-11-14T13:47:12.492Z,3680
2017-11-14T13:48:12.480Z,3720
2017-11-14T13:49:12.774Z,3196
2017-11-14T13:50:12.193Z,2968
2017-11-14T13:51:11.880Z,2968
2017-11-14T13:52:12.714Z,3252
2017-11-14T13:53:12.130Z,3672
2017-11-14T13:54:12.406Z,2660
2017-11-14T13:55:12.101Z,2100
2017-11-14T13:56:12.368Z,2032
2017-11-14T13:57:12.352Z,2048